Airfield :
LOGIN :

Register | Disclaimer

   EN    FR    IT 

 










Legend :    VFR   Marginal VFR   IFR   Intensive IFR   Very Intensive IFR
Visi :
Ceiling :
>= 8 km
>= 3000ft
5 to 8 km
1000 to 3000 ft
1500m to 5 km
500 to 1000 ft
800 to 1500m
200 to 500 ft
< 800m
< 200 ft
Symbols :   Thunderstorms  Fog  Heavy snow  Heavy precipitations  Wind > 20 kt
SIGMETs :     Misc.  Thunderstorms  Icing  Turbulence  Mountain Waves  Volcanic Ashes







- Airport Elevation : 74 ft
- IATA code : MRS
- Download approach charts


LFML - Marseille / Marignane

CURRENT METAR :
  • 241730Z AUTO 09017KT CAVOK 18/06 Q1015 TEMPO 12020G30KT

EXPIRED METARs :
  • 241700Z AUTO 08020KT CAVOK 18/06 Q1015 TEMPO 12020G30KT
  • 241630Z AUTO 08021KT CAVOK 17/07 Q1015 TEMPO 12020G30KT
  • 241600Z AUTO 08021G31KT 9999 FEW012 OVC098 17/07 Q1015 NOSIG
  • 241530Z AUTO 08020KT 9999 FEW013 BKN090 17/08 Q1015 TEMPO 12020G30KT
  • 241500Z AUTO 09019G31KT CAVOK 18/09 Q1015 NOSIG
  • 241430Z AUTO 09016KT CAVOK 18/10 Q1015 TEMPO 12020G30KT

TAF TAF LFML
Valid from the 24 at 15:00 until the 25 at 21:00 UTC


241400Z 2415/2521 09015KT CAVOK
TEMPO 2415/2424 12020G30KT
PROB30
TEMPO 2415/2420 -RA NSC
BECMG 2503/2505 12020G30KT
BECMG 2507/2509 5000 RA BKN005 BKN010CB
TEMPO 2508/2511 15025G40KT 2000 TSRA
BECMG 2511/2512 VRB08KT FEW033
BECMG 2513/2515 10007KT BKN040
BECMG 2519/2521 SCT016 TX16/2415Z TN11/2511Z
ATIS : +33 4 42 31 15 15
No reported NOTAMs for that airfield.
3 SIGMETs reported for the Marseille FIR (LFMM) :
 
Severe turbulence
LFMM SIGMET 5 VALID 241900/242100 LFPW
LFMM MARSEILLE FIR/UIR SEV TURB FCST WI N4345 E00730 - N4330 E00830 - N4245 E00830 - N4215 E00430 - N4315 E00345 SFC/FL060 STNR NC=
Severe turbulence
LFMM SIGMET 4 VALID 241800/242100 LFPW
LFMM MARSEILLE FIR/UIR SEV TURB FCST WI N4000 E00800 - N3900 E00800 - N3900 E00515 - N4015 E00600 SFC/FL060 MOV NW 15KT NC=
Severe turbulence
LFMM SIGMET 3 VALID 241500/241900 LFPW
LFMM MARSEILLE FIR/UIR SEV TURB FCST WI N4300 E00815 - N4215 E00400 - N4315 E00345 - N4400 E00545 SFC/FL060 MOV W 15KT NC=



MET'MAP, your aeronautical weather chart ! - Copyright ORBIFLY December 2007 - Disclaimer

ORBIFLY MET'MAP TEAM :

Programming & Development : Alexandra Zaïnal
Concept & Development : Baudouin d'Aumeries
Co-Development & Prog : Marc-Olivier Méhu
Technical & hardware support : Manuel Goepfert

Contact : metmap@orbifly.com




SOURCES & CREDITS :

   NOAA